Time;durP1;ratioP1;P1;durP2;ratioP2;P2;SDS_P1;SDS_P2;PMS_P1;PMS_P2;Temp;Humidity;BMP_temperature;BMP_pressure;BME280_temperature;BME280_humidity;BME280_pressure;Samples;Min_cycle;Max_cycle;Signal;HPM_P1;HPM_P2
2021/05/21 00:00:46;;;;;;;5.00;2.12;;;;;;;6.72;92.04;92993.86;1796311;79;21037;-78
2021/05/21 00:03:12;;;;;;;2.30;2.20;;;;;;;6.69;92.29;92992.69;1795288;79;21110;-77
2021/05/21 00:05:38;;;;;;;1.80;1.70;;;;;;;6.67;92.46;92993.66;1796042;79;21080;-79
2021/05/21 00:08:07;;;;;;;3.62;2.22;;;;;;;6.67;92.66;92989.61;1796297;79;21096;-77
2021/05/21 00:10:33;;;;;;;3.08;1.90;;;;;;;6.71;92.91;92989.05;1802264;79;21072;-78
2021/05/21 00:13:00;;;;;;;1.95;1.60;;;;;;;6.78;92.75;92983.66;1795003;79;21685;-79
2021/05/21 00:15:26;;;;;;;2.92;1.85;;;;;;;6.79;92.41;92985.78;1794581;79;21621;-79
2021/05/21 00:17:54;;;;;;;5.28;2.52;;;;;;;6.75;92.33;92987.13;1794757;79;21091;-78
2021/05/21 00:20:20;;;;;;;3.35;2.67;;;;;;;6.71;92.41;92991.74;1794573;79;21131;-80
2021/05/21 00:22:47;;;;;;;3.60;3.17;;;;;;;6.71;92.61;92996.37;1794395;79;21685;-78
2021/05/21 00:25:14;;;;;;;4.37;2.70;;;;;;;6.69;92.52;92995.39;1798658;79;20966;-79
2021/05/21 00:27:41;;;;;;;2.30;2.10;;;;;;;6.69;92.59;93001.38;1796220;79;21053;-78
2021/05/21 00:30:09;;;;;;;4.80;2.27;;;;;;;6.70;92.85;92999.66;1796128;79;22022;-78
2021/05/21 00:32:35;;;;;;;2.40;2.20;;;;;;;6.76;92.75;93000.05;1795238;79;21640;-79
2021/05/21 00:35:02;;;;;;;3.35;2.52;;;;;;;6.74;92.52;93005.84;1803607;79;21013;-78
2021/05/21 00:37:30;;;;;;;2.70;2.50;;;;;;;6.77;92.50;93000.24;1795308;79;21780;-80
2021/05/21 00:39:57;;;;;;;3.95;2.17;;;;;;;6.79;92.39;93004.13;1795542;79;21092;-80
2021/05/21 00:42:23;;;;;;;2.60;2.40;;;;;;;6.76;91.81;93000.05;1795511;79;21561;-78
2021/05/21 00:44:56;;;;;;;2.67;2.15;;;;;;;6.66;91.64;93006.98;1795461;79;21116;-78
2021/05/21 00:47:23;;;;;;;2.20;1.50;;;;;;;6.55;91.75;93008.86;1795534;79;21116;-78
2021/05/21 00:49:51;;;;;;;2.72;1.80;;;;;;;6.48;92.06;93016.34;1793544;79;21096;-80
2021/05/21 00:52:17;;;;;;;5.62;2.05;;;;;;;6.40;91.95;93006.66;1795467;79;21112;-79
2021/05/21 00:54:47;;;;;;;3.70;2.05;;;;;;;6.32;92.31;93018.59;1795914;79;21080;-79
2021/05/21 00:57:13;;;;;;;2.12;1.62;;;;;;;6.34;92.84;93017.62;1795776;79;21073;-77
2021/05/21 00:59:41;;;;;;;2.55;1.70;;;;;;;6.39;92.99;93014.55;1796081;79;21060;-81
2021/05/21 01:02:08;;;;;;;1.62;1.52;;;;;;;6.43;92.73;93016.72;1796018;79;21101;-78
2021/05/21 01:04:35;;;;;;;2.98;1.80;;;;;;;6.41;92.51;93013.61;1795577;79;21103;-80
2021/05/21 01:07:04;;;;;;;1.87;1.77;;;;;;;6.42;92.58;93012.45;1795160;79;21135;-79
2021/05/21 01:09:32;;;;;;;1.65;1.50;;;;;;;6.40;92.13;93015.34;1796230;79;21585;-77
2021/05/21 01:12:01;;;;;;;1.55;1.45;;;;;;;6.39;92.08;93013.20;1796613;79;21029;-80
2021/05/21 01:14:29;;;;;;;2.37;2.17;;;;;;;6.38;91.86;93018.99;1795445;79;21005;-77
2021/05/21 01:16:55;;;;;;;6.05;2.35;;;;;;;6.31;91.91;93014.31;1794989;79;21100;-78
2021/05/21 01:19:22;;;;;;;1.50;1.40;;;;;;;6.30;91.98;93012.78;1795010;79;21158;-78
2021/05/21 01:21:48;;;;;;;2.10;1.95;;;;;;;6.27;91.67;93012.17;1769735;79;21104;-78
2021/05/21 01:24:16;;;;;;;1.90;1.70;;;;;;;6.24;91.64;93019.67;1795075;79;21040;-78
2021/05/21 01:26:43;;;;;;;2.00;1.80;;;;;;;6.18;91.39;93014.45;1794705;79;21617;-77
2021/05/21 01:29:09;;;;;;;4.58;1.80;;;;;;;6.11;91.77;93011.13;1794398;79;21072;-77
2021/05/21 01:31:36;;;;;;;3.45;1.67;;;;;;;6.10;92.05;93014.98;1795060;79;22056;-78
2021/05/21 01:34:03;;;;;;;1.70;1.50;;;;;;;6.10;91.94;93019.61;1796547;79;20993;-78
2021/05/21 01:36:29;;;;;;;4.30;1.75;;;;;;;6.08;91.80;93019.39;1771387;79;21071;-81
2021/05/21 01:39:09;;;;;;;1.90;1.80;;;;;;;6.05;91.66;93020.14;1794337;79;21075;-80
2021/05/21 01:41:37;;;;;;;1.75;1.52;;;;;;;5.98;91.85;93030.91;1795167;79;21083;-78
2021/05/21 01:44:06;;;;;;;2.67;1.37;;;;;;;5.96;92.31;93030.50;1795239;79;21664;-79
2021/05/21 01:46:33;;;;;;;2.98;1.50;;;;;;;5.97;92.34;93023.17;1806315;78;21071;-78
2021/05/21 01:48:59;;;;;;;1.72;1.60;;;;;;;5.96;92.13;93028.38;1820921;78;21039;-80
2021/05/21 01:51:26;;;;;;;1.50;1.40;;;;;;;5.89;91.97;93020.20;1823083;78;21090;-77
2021/05/21 01:54:13;;;;;;;1.70;1.60;;;;;;;5.75;92.27;93024.33;1811004;78;21079;-78
2021/05/21 01:56:39;;;;;;;3.60;2.20;;;;;;;5.67;92.79;93025.42;1763534;80;21846;-79
2021/05/21 01:59:06;;;;;;;3.40;1.95;;;;;;;5.62;92.93;93036.56;1811801;78;21034;-77
2021/05/21 02:01:34;;;;;;;1.80;1.70;;;;;;;5.59;92.95;93035.37;1779366;78;21178;-78
2021/05/21 02:04:00;;;;;;;2.25;1.85;;;;;;;5.63;93.00;93032.71;1775629;79;21071;-77
2021/05/21 02:06:27;;;;;;;2.98;2.00;;;;;;;5.65;93.00;93033.13;1808125;77;21073;-78
2021/05/21 02:08:55;;;;;;;1.95;1.85;;;;;;;5.70;93.12;93036.82;1775508;79;21063;-79
2021/05/21 02:11:21;;;;;;;2.45;1.37;;;;;;;5.73;92.87;93030.69;1796307;79;21119;-77
2021/05/21 02:13:49;;;;;;;1.92;1.72;;;;;;;5.74;92.80;93033.58;1800656;79;20926;-73
2021/05/21 02:16:16;;;;;;;1.30;1.20;;;;;;;5.77;92.73;93044.97;1770790;79;21077;-80
2021/05/21 02:18:43;;;;;;;2.87;1.70;;;;;;;5.74;92.32;93047.06;1764176;80;20989;-77
2021/05/21 02:21:10;;;;;;;3.15;1.40;;;;;;;5.69;92.25;93045.30;1763605;80;21104;-78
2021/05/21 02:23:38;;;;;;;1.65;1.25;;;;;;;5.66;92.34;93044.11;1729671;81;21138;-78
2021/05/21 02:26:06;;;;;;;3.67;1.55;;;;;;;5.64;92.35;93049.09;1763841;80;21061;-77
2021/05/21 02:28:32;;;;;;;1.67;1.35;;;;;;;5.64;92.37;93053.71;1763839;80;21634;-81
2021/05/21 02:31:00;;;;;;;1.65;1.55;;;;;;;5.64;92.27;93045.62;1763921;80;21080;-80
2021/05/21 02:33:27;;;;;;;1.60;1.47;;;;;;;5.63;91.86;93047.55;1763636;81;21120;-81
2021/05/21 02:35:54;;;;;;;2.10;1.40;;;;;;;5.51;91.38;93049.95;1779085;77;21000;-81
2021/05/21 02:38:20;;;;;;;1.72;1.60;;;;;;;5.40;91.59;93049.08;1846891;77;21063;-80
2021/05/21 02:40:46;;;;;;;1.85;1.50;;;;;;;5.28;91.65;93051.47;1771465;77;21681;-81
2021/05/21 02:43:14;;;;;;;2.15;1.40;;;;;;;5.21;91.87;93064.87;1743128;81;21037;-78
2021/05/21 02:45:40;;;;;;;1.50;1.40;;;;;;;5.18;92.17;93062.91;1733563;82;21097;-77
2021/05/21 02:48:06;;;;;;;3.62;1.72;;;;;;;5.15;92.35;93062.30;1753107;79;21138;-81
2021/05/21 02:50:33;;;;;;;2.40;1.22;;;;;;;5.16;92.31;93065.22;1815891;79;21569;-78
2021/05/21 02:53:00;;;;;;;1.80;1.45;;;;;;;5.14;92.36;93072.11;1755655;81;21017;-78
2021/05/21 02:55:26;;;;;;;1.95;1.60;;;;;;;5.10;92.38;93063.98;1755195;81;21041;-77
2021/05/21 02:57:52;;;;;;;1.37;1.25;;;;;;;5.13;92.69;93062.48;1754214;81;21638;-80
2021/05/21 03:00:20;;;;;;;1.70;1.32;;;;;;;5.14;92.48;93066.72;1754829;81;21088;-80
2021/05/21 03:02:47;;;;;;;1.37;1.27;;;;;;;5.10;92.28;93062.06;1755047;81;21077;-78
2021/05/21 03:05:17;;;;;;;2.80;1.50;;;;;;;5.10;92.32;93077.46;1755062;81;21052;-80
2021/05/21 03:07:42;;;;;;;1.55;1.40;;;;;;;5.16;92.49;93082.73;1807272;79;21008;-79
2021/05/21 03:10:10;;;;;;;2.98;2.65;;;;;;;5.16;92.49;93082.73;1778327;79;21048;-79
2021/05/21 03:12:36;;;;;;;3.12;1.32;;;;;;;5.21;92.18;93078.93;1755076;81;21108;-80
2021/05/21 03:15:04;;;;;;;3.33;1.70;;;;;;;5.20;91.61;93072.00;1755492;81;21136;-79
2021/05/21 03:17:32;;;;;;;1.45;1.35;;;;;;;5.14;91.66;93079.63;1755192;81;21017;-81
2021/05/21 03:20:00;;;;;;;5.55;2.75;;;;;;;5.13;91.62;93087.52;1812217;79;21001;-78
2021/05/21 03:22:26;;;;;;;1.37;1.25;;;;;;;5.07;91.55;93085.70;1766257;79;21123;-78
2021/05/21 03:24:53;;;;;;;2.58;1.20;;;;;;;5.05;92.00;93085.31;1811243;77;21071;-79
2021/05/21 03:27:19;;;;;;;1.62;1.52;;;;;;;5.05;92.00;93085.31;1846501;77;21074;-80
2021/05/21 03:29:46;;;;;;;;;;;;;;;;;;;;;
2021/05/21 03:32:13;;;;;;;1.50;1.40;;;;;;;5.16;92.26;93090.05;1813204;79;21706;-78
2021/05/21 03:34:40;;;;;;;2.12;1.67;;;;;;;5.32;92.31;93091.95;1830987;78;21445;-77
2021/05/21 03:37:07;;;;;;;6.17;1.75;;;;;;;5.32;92.31;93091.95;1819010;78;21048;-79
2021/05/21 03:39:34;;;;;;;2.60;1.57;;;;;;;5.40;92.06;93098.96;1802026;79;21088;-78
2021/05/21 03:42:00;;;;;;;3.33;1.55;;;;;;;5.47;91.95;93102.31;1798454;78;21116;-78
2021/05/21 03:44:27;;;;;;;2.25;1.32;;;;;;;5.49;91.61;93097.31;1837203;78;21064;-80
2021/05/21 03:46:57;;;;;;;2.15;1.72;;;;;;;5.50;91.46;93094.83;1809018;78;21550;-78
2021/05/21 03:49:23;;;;;;;1.82;1.72;;;;;;;5.55;91.21;93102.58;1804828;78;21661;-78
2021/05/21 03:51:50;;;;;;;2.35;1.70;;;;;;;5.67;91.52;93092.09;1819254;77;21026;-79
2021/05/21 03:54:16;;;;;;;2.83;2.08;;;;;;;5.97;92.53;93098.16;1834808;77;21699;-78
2021/05/21 03:56:43;;;;;;;4.70;3.17;;;;;;;6.35;92.94;93102.10;1779261;80;21074;-78
2021/05/21 03:59:09;;;;;;;4.28;2.20;;;;;;;6.74;91.89;93105.06;1812270;79;21107;-80
2021/05/21 04:01:36;;;;;;;2.65;2.45;;;;;;;6.99;90.30;93104.58;1795252;79;21083;-80
2021/05/21 04:04:03;;;;;;;1.77;1.60;;;;;;;7.11;89.02;93112.16;1784915;79;20918;-78
2021/05/21 04:06:30;;;;;;;2.58;2.20;;;;;;;7.17;88.18;93111.42;1790771;78;21089;-80
2021/05/21 04:08:57;;;;;;;2.27;1.80;;;;;;;7.31;88.16;93108.00;1827684;78;21068;-80
2021/05/21 04:11:23;;;;;;;5.15;2.05;;;;;;;7.65;88.12;93115.83;1833977;78;21716;-81
2021/05/21 04:13:49;;;;;;;3.52;2.98;;;;;;;7.93;86.31;93115.09;1815220;78;21065;-81
2021/05/21 04:16:16;;;;;;;4.50;3.42;;;;;;;8.06;84.27;93114.15;1818171;78;21076;-76
2021/05/21 04:18:42;;;;;;;3.62;2.58;;;;;;;8.18;84.07;93113.76;1833712;77;21572;-80
2021/05/21 04:21:10;;;;;;;3.72;2.92;;;;;;;8.33;82.81;93115.89;1848884;77;21070;-77
2021/05/21 04:23:39;;;;;;;3.45;3.08;;;;;;;8.32;81.48;93118.41;1843804;77;21562;-76
2021/05/21 04:26:06;;;;;;;3.35;3.05;;;;;;;8.17;81.42;93118.41;1791849;77;21092;-75
2021/05/21 04:28:32;;;;;;;3.27;2.80;;;;;;;8.16;82.12;93117.42;1779914;79;21044;-78
2021/05/21 04:30:59;;;;;;;2.98;2.65;;;;;;;8.30;82.04;93119.37;1779025;79;21123;-79
2021/05/21 04:33:25;;;;;;;3.98;3.15;;;;;;;8.56;82.05;93118.98;1780156;80;21087;-79
2021/05/21 04:35:52;;;;;;;3.50;3.20;;;;;;;8.94;81.36;93120.08;1780325;80;21124;-76
2021/05/21 04:38:19;;;;;;;3.95;3.10;;;;;;;9.33;79.94;93115.70;1780424;80;21059;-80
2021/05/21 04:40:46;;;;;;;2.45;2.25;;;;;;;9.59;78.15;93119.83;1780480;80;21577;-79
2021/05/21 04:43:12;;;;;;;2.52;2.35;;;;;;;9.82;77.02;93116.03;1779871;80;21127;-79
2021/05/21 04:45:38;;;;;;;2.98;2.67;;;;;;;10.03;76.15;93116.47;1781465;80;21135;-79
2021/05/21 04:48:06;;;;;;;2.87;2.45;;;;;;;10.25;74.75;93117.69;1780731;80;21092;-80
2021/05/21 04:50:32;;;;;;;2.45;2.25;;;;;;;10.46;74.37;93116.19;1779761;80;21604;-78
2021/05/21 04:52:59;;;;;;;2.22;2.02;;;;;;;10.82;73.20;93116.63;1763305;80;21048;-79
2021/05/21 04:55:26;;;;;;;2.52;2.33;;;;;;;11.31;72.66;93118.63;1771596;80;21112;-81
2021/05/21 04:57:52;;;;;;;1.90;1.70;;;;;;;11.83;70.62;93118.41;1790199;79;21079;-79
2021/05/21 05:00:19;;;;;;;2.27;2.08;;;;;;;12.22;68.40;93114.34;1794068;79;21084;-79
2021/05/21 05:02:46;;;;;;;1.77;1.67;;;;;;;12.58;66.95;93118.66;1800180;77;21712;-81
2021/05/21 05:05:12;;;;;;;1.85;1.75;;;;;;;12.92;65.67;93121.03;1808764;79;21062;-81
2021/05/21 05:07:39;;;;;;;1.35;1.30;;;;;;;13.32;64.80;93117.19;1812188;79;21032;-79
2021/05/21 05:10:05;;;;;;;2.37;1.57;;;;;;;13.77;63.20;93119.42;1812295;79;21064;-79
2021/05/21 05:12:32;;;;;;;3.00;1.90;;;;;;;13.88;61.26;93112.94;1811768;78;21600;-80
2021/05/21 05:14:58;;;;;;;1.82;1.72;;;;;;;13.70;60.58;93113.34;1820591;78;21125;-80
2021/05/21 05:17:25;;;;;;;1.92;1.82;;;;;;;13.71;60.41;93115.63;1784004;79;21088;-80
2021/05/21 05:19:51;;;;;;;2.47;2.27;;;;;;;13.82;59.80;93105.85;1771546;79;21080;-79
2021/05/21 05:22:19;;;;;;;4.55;1.80;;;;;;;13.97;59.56;93112.55;1807938;79;21604;-81
2021/05/21 05:24:45;;;;;;;1.87;1.70;;;;;;;13.95;58.28;93111.42;1797568;79;22005;-82
2021/05/21 05:27:11;;;;;;;1.80;1.70;;;;;;;13.84;58.57;93114.38;1797419;79;21099;-78
2021/05/21 05:29:38;;;;;;;1.95;1.85;;;;;;;13.81;58.59;93111.91;1832105;78;21122;-80
2021/05/21 05:32:05;;;;;;;2.22;1.98;;;;;;;13.65;59.15;93117.91;1825033;78;21122;-81
2021/05/21 05:34:32;;;;;;;4.50;2.42;;;;;;;13.46;60.23;93121.59;1820017;78;21127;-81
2021/05/21 05:36:59;;;;;;;2.62;1.80;;;;;;;13.27;59.97;93123.12;1801341;79;21786;-77
2021/05/21 05:39:26;;;;;;;2.20;2.05;;;;;;;13.06;59.18;93120.78;1787488;80;21043;-79
2021/05/21 05:41:52;;;;;;;1.85;1.75;;;;;;;12.79;59.59;93120.87;1754805;81;21064;-79
2021/05/21 05:44:20;;;;;;;2.00;1.80;;;;;;;12.53;60.31;93123.23;1787884;79;21033;-80
2021/05/21 05:46:46;;;;;;;2.42;2.02;;;;;;;12.22;60.97;93118.43;1813858;78;21061;-79
2021/05/21 05:49:14;;;;;;;2.10;1.67;;;;;;;12.16;63.21;93118.73;1818457;78;21093;-78
2021/05/21 05:51:40;;;;;;;2.50;2.30;;;;;;;12.54;63.11;93129.45;1814421;79;21063;-79
2021/05/21 05:54:07;;;;;;;3.08;2.83;;;;;;;12.86;61.27;93127.54;1813264;79;21060;-79
2021/05/21 05:56:33;;;;;;;2.20;2.00;;;;;;;12.98;60.50;93113.31;1813265;79;21048;-79
2021/05/21 05:59:00;;;;;;;2.85;1.80;;;;;;;12.91;60.01;93120.86;1816069;78;21052;-78
2021/05/21 06:01:26;;;;;;;3.22;2.92;;;;;;;12.48;60.29;93114.73;1817130;78;21055;-78
2021/05/21 06:03:53;;;;;;;4.25;2.20;;;;;;;12.05;62.08;93114.80;1816654;78;21349;-79
2021/05/21 06:06:19;;;;;;;3.40;2.10;;;;;;;11.85;63.66;93113.34;1817160;78;21631;-79
2021/05/21 06:08:46;;;;;;;4.65;3.02;;;;;;;11.86;63.89;93112.14;1817512;78;21039;-79
2021/05/21 06:11:12;;;;;;;5.33;2.72;;;;;;;11.91;63.25;93121.21;1827703;78;21063;-77
2021/05/21 06:13:40;;;;;;;5.92;3.47;;;;;;;12.26;64.14;93108.84;1829436;78;21083;-77
2021/05/21 06:16:06;;;;;;;11.43;5.58;;;;;;;12.75;64.22;93106.48;1819597;78;21142;-77
2021/05/21 06:18:33;;;;;;;16.60;9.08;;;;;;;13.39;64.41;93104.00;1818378;78;20979;-77
2021/05/21 06:21:00;;;;;;;6.30;3.80;;;;;;;14.09;61.80;93100.95;1833201;77;21107;-77
2021/05/21 06:23:26;;;;;;;5.72;3.08;;;;;;;14.70;59.34;93099.55;1823965;78;21048;-78
2021/05/21 06:25:59;;;;;;;5.92;2.83;;;;;;;15.29;57.57;93098.42;1817686;78;21511;-80
2021/05/21 06:28:23;;;;;;;3.35;2.35;;;;;;;15.82;55.56;93096.03;1819642;77;21400;-79
2021/05/21 06:30:50;;;;;;;3.77;2.25;;;;;;;16.33;52.34;93094.71;1835591;78;21048;-77
2021/05/21 06:33:19;;;;;;;4.85;2.55;;;;;;;16.83;51.48;93098.02;1818124;78;21158;-78
2021/05/21 06:35:50;;;;;;;3.22;2.50;;;;;;;17.14;49.52;93093.27;1819358;78;21679;-79
2021/05/21 06:38:15;;;;;;;4.08;2.35;;;;;;;17.34;47.89;93089.64;1826680;77;21597;-77
2021/05/21 06:40:42;;;;;;;3.22;2.10;;;;;;;17.42;47.40;93092.91;1828477;77;21094;-77
2021/05/21 06:43:10;;;;;;;3.02;2.10;;;;;;;17.43;47.97;93089.70;1822938;76;21054;-77
2021/05/21 06:45:37;;;;;;;4.92;1.75;;;;;;;17.46;46.83;93089.42;1866597;76;21562;-79
2021/05/21 06:48:05;;;;;;;2.05;1.62;;;;;;;17.30;47.88;93089.00;1827093;76;21054;-80
2021/05/21 06:50:31;;;;;;;1.55;1.40;;;;;;;17.32;47.33;93095.41;1828423;78;21067;-77
2021/05/21 06:52:58;;;;;;;2.67;1.70;;;;;;;17.48;46.78;93079.50;1828564;78;21055;-80
2021/05/21 06:55:24;;;;;;;4.08;1.85;;;;;;;17.73;46.90;93083.34;1817580;78;21253;-81
2021/05/21 06:57:51;;;;;;;3.62;2.00;;;;;;;18.01;46.72;93079.39;1817061;78;21087;-82
2021/05/21 07:00:18;;;;;;;2.95;1.85;;;;;;;18.24;45.76;93083.05;1833240;78;21111;-80
2021/05/21 07:02:45;;;;;;;2.20;1.37;;;;;;;18.43;42.96;93082.52;1822621;78;21601;-82
2021/05/21 07:05:14;;;;;;;2.55;1.40;;;;;;;18.57;42.32;93082.54;1815941;78;21070;-80
2021/05/21 07:07:40;;;;;;;2.25;1.30;;;;;;;18.74;41.00;93072.84;1824684;77;21323;-80
2021/05/21 07:10:09;;;;;;;2.15;1.42;;;;;;;18.73;40.58;93078.20;1852820;77;21577;-80
2021/05/21 07:12:37;;;;;;;1.98;1.60;;;;;;;18.67;39.83;93081.36;1833338;78;21059;-80
2021/05/21 07:15:07;;;;;;;1.72;1.52;;;;;;;18.72;40.63;93078.64;1832113;78;21044;-80
2021/05/21 07:17:34;;;;;;;3.92;3.52;;;;;;;18.72;40.66;93075.88;1834012;78;21660;-82
2021/05/21 07:20:03;;;;;;;3.52;3.10;;;;;;;18.61;40.21;93074.28;1829594;77;21055;-80
2021/05/21 07:22:30;;;;;;;2.33;2.15;;;;;;;18.53;40.85;93072.28;1818055;78;22074;-81
2021/05/21 07:24:56;;;;;;;3.10;2.90;;;;;;;18.61;40.19;93072.91;1805616;77;20993;-80
2021/05/21 07:27:23;;;;;;;3.85;3.47;;;;;;;18.63;39.12;93081.50;1785728;79;21550;-80
2021/05/21 07:29:49;;;;;;;2.80;2.22;;;;;;;18.40;39.34;93073.78;1768852;80;21668;-79
2021/05/21 07:32:16;;;;;;;2.83;2.62;;;;;;;18.13;38.33;93075.81;1758864;80;21680;-80
2021/05/21 07:34:42;;;;;;;1.92;1.72;;;;;;;17.78;39.28;93071.78;1776897;79;21436;-81
2021/05/21 07:37:08;;;;;;;1.40;1.30;;;;;;;17.34;39.25;93075.11;1825595;78;21048;-80
2021/05/21 07:39:37;;;;;;;1.42;1.22;;;;;;;16.94;40.90;93079.83;1756059;78;21086;-80
2021/05/21 07:42:04;;;;;;;1.90;1.80;;;;;;;16.90;42.00;93078.56;1804626;79;21401;-79
2021/05/21 07:44:31;;;;;;;2.70;1.55;;;;;;;17.12;41.83;93081.98;1793486;79;21033;-83
2021/05/21 07:46:57;;;;;;;1.75;1.02;;;;;;;17.30;41.62;93074.47;1785466;80;21128;-80
2021/05/21 07:49:26;;;;;;;1.62;1.47;;;;;;;17.33;40.85;93077.70;1760362;81;21056;-82
2021/05/21 07:51:53;;;;;;;1.35;1.25;;;;;;;17.18;41.02;93080.94;1776142;80;21370;-80
2021/05/21 07:54:20;;;;;;;1.35;1.25;;;;;;;16.96;39.11;93080.13;1759012;80;21094;-80
2021/05/21 07:56:46;;;;;;;1.40;1.30;;;;;;;16.89;40.27;93079.02;1764617;80;21084;-83
2021/05/21 07:59:14;;;;;;;1.35;1.25;;;;;;;16.95;39.86;93079.98;1759070;79;21076;-81
2021/05/21 08:01:41;;;;;;;2.35;1.30;;;;;;;17.03;38.91;93077.76;1721695;83;21108;-80
2021/05/21 08:04:07;;;;;;;1.30;1.20;;;;;;;16.79;39.57;93077.39;1721496;83;21437;-81
2021/05/21 08:06:34;;;;;;;1.95;1.10;;;;;;;16.58;40.96;93080.19;1747372;81;21124;-81
2021/05/21 08:09:05;;;;;;;1.60;1.50;;;;;;;16.36;40.98;93073.23;1753271;81;21100;-82
2021/05/21 08:11:33;;;;;;;1.77;1.52;;;;;;;16.14;40.39;93083.52;1752221;81;21084;-80
2021/05/21 08:14:00;;;;;;;2.55;1.30;;;;;;;16.02;41.10;93082.30;1752024;81;21136;-79
2021/05/21 08:16:30;;;;;;;1.27;1.10;;;;;;;16.09;41.34;93088.77;1752359;81;21100;-81
2021/05/21 08:18:57;;;;;;;2.05;1.57;;;;;;;16.23;42.17;93081.48;1752671;81;21096;-80
2021/05/21 08:21:26;;;;;;;18.60;14.00;;;;;;;16.49;40.20;93080.86;1752536;81;21674;-79
2021/05/21 08:23:54;;;;;;;5.10;4.45;;;;;;;16.58;39.82;93083.70;1752319;81;21081;-80
2021/05/21 08:26:25;;;;;;;2.87;1.77;;;;;;;16.58;40.53;93074.70;1753834;81;20993;-81
2021/05/21 08:28:55;;;;;;;1.35;1.25;;;;;;;16.63;39.68;93074.92;1753542;81;21144;-78
2021/05/21 08:31:22;;;;;;;1.40;1.30;;;;;;;16.59;39.64;93076.25;1754233;81;21100;-80
2021/05/21 08:33:49;;;;;;;2.00;1.42;;;;;;;16.32;39.57;93075.33;1754523;81;21649;-77
2021/05/21 08:36:15;;;;;;;1.45;1.35;;;;;;;16.15;41.45;93074.08;1754293;81;21080;-84
2021/05/21 08:38:45;;;;;;;3.70;1.10;;;;;;;16.17;40.39;93070.88;1753951;81;21606;-81
2021/05/21 08:41:24;;;;;;;6.12;1.62;;;;;;;16.26;41.42;93072.37;1734386;81;21606;-78
2021/05/21 08:43:53;;;;;;;1.22;1.10;;;;;;;16.34;40.69;93075.66;1754207;81;21120;-78
2021/05/21 08:46:21;;;;;;;1.22;1.12;;;;;;;16.29;39.58;93070.73;1754392;81;21065;-79
2021/05/21 08:48:48;;;;;;;1.95;1.10;;;;;;;16.16;40.95;93070.11;1753600;81;21618;-80
2021/05/21 08:51:15;;;;;;;2.50;1.30;;;;;;;16.16;39.90;93070.11;1753744;81;21045;-81
2021/05/21 08:53:42;;;;;;;1.20;1.10;;;;;;;16.14;39.39;93063.55;1753407;81;21120;-82
2021/05/21 08:56:09;;;;;;;1.47;1.10;;;;;;;16.03;39.60;93060.52;1753370;81;21029;-79
2021/05/21 08:58:37;;;;;;;0.88;0.88;;;;;;;15.88;40.41;93060.79;1754342;81;21057;-81
2021/05/21 09:01:04;;;;;;;1.17;1.07;;;;;;;15.71;39.44;93056.59;1753271;81;21652;-81
2021/05/21 09:03:32;;;;;;;2.17;1.20;;;;;;;15.60;40.54;93052.75;1753809;81;21080;-80
2021/05/21 09:06:14;;;;;;;10.15;5.75;;;;;;;15.61;40.49;93056.26;1754780;81;21642;-80
2021/05/21 09:08:50;;;;;;;4.08;2.90;;;;;;;15.58;39.98;93053.05;1753896;81;21105;-81
2021/05/21 09:11:34;;;;;;;3.98;1.47;;;;;;;15.59;40.36;93058.08;1754945;81;21247;-79
2021/05/21 09:14:18;;;;;;;1.27;0.90;;;;;;;15.59;40.05;93052.59;1756432;79;21108;-78
2021/05/21 09:16:48;;;;;;;1.67;1.42;;;;;;;15.58;40.54;93053.80;1753667;81;20981;-79
2021/05/21 09:19:16;;;;;;;1.90;1.20;;;;;;;15.58;41.28;93054.41;1753602;81;21088;-80
2021/05/21 09:21:50;;;;;;;3.12;1.55;;;;;;;15.51;41.40;93048.53;1754837;81;21140;-79
2021/05/21 09:24:23;;;;;;;1.55;1.30;;;;;;;15.51;42.98;93049.30;1755047;81;21092;-80
2021/05/21 09:26:50;;;;;;;2.67;1.12;;;;;;;15.59;42.77;93047.11;1752743;81;21429;-80
2021/05/21 09:29:32;;;;;;;6.60;1.95;;;;;;;15.78;40.26;93046.79;1753868;81;21293;-79
2021/05/21 09:31:58;;;;;;;2.25;1.10;;;;;;;15.82;40.45;93040.59;1752957;81;21108;-78
2021/05/21 09:34:32;;;;;;;1.75;1.00;;;;;;;15.79;39.92;93036.75;1753867;81;21084;-80
2021/05/21 09:36:59;;;;;;;4.10;1.30;;;;;;;15.73;40.60;93035.77;1753998;81;21100;-80
2021/05/21 09:39:26;;;;;;;1.00;1.00;;;;;;;15.72;41.54;93035.61;1753588;81;21100;-78
2021/05/21 09:41:55;;;;;;;1.40;0.90;;;;;;;15.71;42.24;93031.92;1753711;81;21068;-78
2021/05/21 09:44:22;;;;;;;2.12;1.95;;;;;;;15.80;41.35;93033.42;1754168;81;21067;-79
2021/05/21 09:46:51;;;;;;;1.57;1.27;;;;;;;15.96;41.19;93027.06;1755184;81;21693;-80
2021/05/21 09:49:38;;;;;;;2.08;1.62;;;;;;;16.06;40.38;93021.86;1753944;81;21649;-78
2021/05/21 09:52:10;;;;;;;1.25;1.15;;;;;;;16.17;41.75;93022.30;1754875;81;21049;-79
2021/05/21 09:54:55;;;;;;;2.62;1.12;;;;;;;16.32;41.31;93024.56;1754738;81;21121;-81
2021/05/21 09:57:32;;;;;;;3.33;1.87;;;;;;;16.49;42.93;93024.61;1754218;81;21539;-80
2021/05/21 10:00:03;;;;;;;3.87;1.62;;;;;;;16.57;42.22;93023.77;1753160;81;21084;-83
2021/05/21 10:02:32;;;;;;;2.30;1.10;;;;;;;16.48;39.48;93025.22;1753933;81;21057;-79
2021/05/21 10:04:59;;;;;;;8.55;3.95;;;;;;;16.26;40.89;93023.00;1753753;81;21112;-80
2021/05/21 10:07:26;;;;;;;2.77;2.17;;;;;;;16.05;40.26;93020.31;1752973;81;21669;-79
2021/05/21 10:09:53;;;;;;;2.77;1.20;;;;;;;15.85;41.06;93022.52;1753728;81;21621;-78
2021/05/21 10:12:20;;;;;;;1.82;1.10;;;;;;;15.74;42.57;93029.69;1754176;81;21088;-79
2021/05/21 10:14:49;;;;;;;3.33;2.50;;;;;;;15.68;42.16;93028.09;1753743;81;21227;-81
2021/05/21 10:19:53;;;;;;;7.22;3.95;;;;;;;15.62;41.42;93020.21;1752676;81;21069;-77
2021/05/21 10:22:24;;;;;;;1.87;1.60;;;;;;;15.55;40.64;93022.55;1757181;80;21110;-78
2021/05/21 10:24:53;;;;;;;2.02;1.82;;;;;;;15.47;39.42;93015.75;1741422;81;21601;-79
2021/05/21 10:27:22;;;;;;;3.72;1.00;;;;;;;15.44;42.18;93004.28;1745648;80;21099;-78
2021/05/21 10:29:55;;;;;;;1.20;0.88;;;;;;;15.58;41.47;93008.59;1768180;80;21737;-79
2021/05/21 10:34:55;;;;;;;2.20;1.27;;;;;;;16.06;43.28;92995.81;1786273;80;21140;-80
2021/05/21 10:37:41;;;;;;;0.80;0.72;;;;;;;16.31;41.14;92994.23;1797253;77;21436;-79
2021/05/21 10:40:27;;;;;;;0.90;0.90;;;;;;;16.46;42.84;93002.92;1788869;79;21072;-79
2021/05/21 10:43:16;;;;;;;1.55;0.85;;;;;;;16.53;38.86;92992.32;1777158;80;20990;-79
2021/05/21 10:45:54;;;;;;;1.47;0.80;;;;;;;16.47;40.09;93002.31;1771152;80;21087;-78
2021/05/21 10:48:29;;;;;;;0.62;0.62;;;;;;;16.36;38.03;92994.45;1773428;80;21147;-78
2021/05/21 10:51:11;;;;;;;1.55;1.40;;;;;;;16.29;39.15;92993.31;1774183;80;21131;-78
2021/05/21 10:53:39;;;;;;;1.22;0.90;;;;;;;16.32;37.84;92989.66;1774439;79;21059;-79
2021/05/21 10:56:05;;;;;;;0.78;0.78;;;;;;;16.43;37.74;92986.58;1851576;77;21052;-78
2021/05/21 10:58:43;;;;;;;1.47;0.68;;;;;;;16.58;38.36;92985.50;1791671;77;21089;-78
2021/05/21 11:01:15;;;;;;;3.12;0.80;;;;;;;16.77;39.09;92976.84;1767159;80;21082;-80
2021/05/21 11:04:08;;;;;;;1.02;0.80;;;;;;;16.95;36.71;92983.25;1771246;80;21052;-82
2021/05/21 11:06:49;;;;;;;0.78;0.62;;;;;;;17.11;37.10;92985.06;1841648;77;21318;-78
2021/05/21 11:09:24;;;;;;;1.12;0.72;;;;;;;17.19;36.63;92976.73;1821772;77;21071;-79
2021/05/21 11:12:08;;;;;;;0.70;0.70;;;;;;;17.35;36.57;92977.12;1846940;77;21060;-80
2021/05/21 11:17:26;;;;;;;1.17;1.07;;;;;;;17.76;34.38;92964.85;1823386;78;21685;-78
2021/05/21 11:20:02;;;;;;;1.57;1.05;;;;;;;17.82;38.55;92964.41;1808959;78;21048;-77
2021/05/21 11:22:35;;;;;;;1.25;1.15;;;;;;;17.90;38.81;92960.94;1815275;78;21084;-79
2021/05/21 11:25:06;;;;;;;3.45;1.65;;;;;;;17.93;38.50;92963.38;1823164;77;21078;-78
2021/05/21 11:27:34;;;;;;;3.87;0.80;;;;;;;17.93;36.26;92962.00;1797434;79;21171;-78
2021/05/21 11:30:08;;;;;;;5.90;3.92;;;;;;;17.84;35.09;92963.36;1827597;78;21083;-79
2021/05/21 11:32:38;;;;;;;4.42;3.05;;;;;;;17.71;37.55;92961.45;1804153;78;21609;-77
2021/05/21 11:35:09;;;;;;;1.65;1.00;;;;;;;17.65;38.32;92955.61;1754764;79;21060;-78
2021/05/21 11:37:38;;;;;;;1.30;0.70;;;;;;;17.75;35.91;92945.40;1751284;81;21023;-77
2021/05/21 11:40:07;;;;;;;0.70;0.70;;;;;;;17.89;35.51;92947.62;1768896;79;21079;-80
2021/05/21 11:42:37;;;;;;;1.95;0.90;;;;;;;17.99;36.47;92943.70;1779738;79;21111;-79
2021/05/21 11:45:06;;;;;;;2.20;2.00;;;;;;;18.07;33.98;92940.05;1738380;81;21378;-80
2021/05/21 11:47:37;;;;;;;35.65;29.55;;;;;;;18.13;35.93;92939.00;1762707;80;21080;-78
2021/05/21 11:50:07;;;;;;;9.35;6.25;;;;;;;18.17;33.98;92936.88;1703388;81;21073;-77
2021/05/21 11:52:33;;;;;;;3.90;2.17;;;;;;;18.20;35.31;92930.47;1775571;78;21087;-78